sensor_id;sensor_type;location;lat;lon;timestamp;P1;durP1;ratioP1;P2;durP2;ratioP2
55202;SDS011;41077;52.956;6.796;2023-04-28T00:01:19;12.93;;;9.57;;
55202;SDS011;41077;52.956;6.796;2023-04-28T00:03:44;17.27;;;10.63;;
55202;SDS011;41077;52.956;6.796;2023-04-28T00:06:11;14.40;;;9.77;;
55202;SDS011;41077;52.956;6.796;2023-04-28T00:08:36;13.85;;;9.43;;
55202;SDS011;41077;52.956;6.796;2023-04-28T00:11:02;14.70;;;9.68;;
55202;SDS011;41077;52.956;6.796;2023-04-28T00:13:28;10.32;;;9.10;;
55202;SDS011;41077;52.956;6.796;2023-04-28T00:15:53;15.02;;;9.63;;
55202;SDS011;41077;52.956;6.796;2023-04-28T00:18:20;13.73;;;9.80;;
55202;SDS011;41077;52.956;6.796;2023-04-28T00:20:46;18.10;;;10.95;;
55202;SDS011;41077;52.956;6.796;2023-04-28T00:23:11;16.13;;;10.20;;
55202;SDS011;41077;52.956;6.796;2023-04-28T00:25:37;12.63;;;9.35;;
55202;SDS011;41077;52.956;6.796;2023-04-28T00:28:03;15.63;;;10.48;;
55202;SDS011;41077;52.956;6.796;2023-04-28T00:30:29;13.30;;;10.27;;
55202;SDS011;41077;52.956;6.796;2023-04-28T00:32:55;18.42;;;10.10;;
55202;SDS011;41077;52.956;6.796;2023-04-28T00:35:21;16.30;;;10.93;;
55202;SDS011;41077;52.956;6.796;2023-04-28T00:37:47;17.20;;;10.35;;
55202;SDS011;41077;52.956;6.796;2023-04-28T00:40:12;13.32;;;9.68;;
55202;SDS011;41077;52.956;6.796;2023-04-28T00:42:38;18.42;;;10.32;;
55202;SDS011;41077;52.956;6.796;2023-04-28T00:45:04;13.63;;;9.20;;
55202;SDS011;41077;52.956;6.796;2023-04-28T00:47:35;15.77;;;11.05;;
55202;SDS011;41077;52.956;6.796;2023-04-28T00:50:01;14.00;;;10.82;;
55202;SDS011;41077;52.956;6.796;2023-04-28T00:52:29;19.40;;;10.20;;
55202;SDS011;41077;52.956;6.796;2023-04-28T01:07:42;18.95;;;11.70;;
55202;SDS011;41077;52.956;6.796;2023-04-28T01:13:34;17.83;;;12.82;;
55202;SDS011;41077;52.956;6.796;2023-04-28T01:16:00;20.98;;;12.18;;
55202;SDS011;41077;52.956;6.796;2023-04-28T01:18:25;17.70;;;12.32;;
55202;SDS011;41077;52.956;6.796;2023-04-28T01:20:51;14.48;;;12.02;;
55202;SDS011;41077;52.956;6.796;2023-04-28T01:23:17;21.02;;;13.80;;
55202;SDS011;41077;52.956;6.796;2023-04-28T01:25:43;16.67;;;12.45;;
55202;SDS011;41077;52.956;6.796;2023-04-28T01:28:09;21.50;;;13.85;;
55202;SDS011;41077;52.956;6.796;2023-04-28T01:30:35;20.35;;;13.25;;
55202;SDS011;41077;52.956;6.796;2023-04-28T01:33:01;20.85;;;14.57;;
55202;SDS011;41077;52.956;6.796;2023-04-28T01:35:27;24.45;;;14.00;;
55202;SDS011;41077;52.956;6.796;2023-04-28T01:37:53;24.58;;;15.63;;
55202;SDS011;41077;52.956;6.796;2023-04-28T01:40:19;21.98;;;14.50;;
55202;SDS011;41077;52.956;6.796;2023-04-28T01:42:45;16.75;;;14.10;;
55202;SDS011;41077;52.956;6.796;2023-04-28T01:45:10;20.08;;;13.98;;
55202;SDS011;41077;52.956;6.796;2023-04-28T01:47:36;25.52;;;14.05;;
55202;SDS011;41077;52.956;6.796;2023-04-28T01:50:02;25.02;;;14.50;;
55202;SDS011;41077;52.956;6.796;2023-04-28T01:52:28;18.00;;;13.85;;
55202;SDS011;41077;52.956;6.796;2023-04-28T01:54:54;17.55;;;13.90;;
55202;SDS011;41077;52.956;6.796;2023-04-28T01:57:20;22.15;;;14.60;;
55202;SDS011;41077;52.956;6.796;2023-04-28T01:59:45;21.55;;;14.88;;
55202;SDS011;41077;52.956;6.796;2023-04-28T02:02:11;22.45;;;15.50;;
55202;SDS011;41077;52.956;6.796;2023-04-28T02:04:37;24.23;;;15.02;;
55202;SDS011;41077;52.956;6.796;2023-04-28T02:07:03;23.60;;;14.75;;
55202;SDS011;41077;52.956;6.796;2023-04-28T02:09:29;22.70;;;15.00;;
55202;SDS011;41077;52.956;6.796;2023-04-28T02:11:54;24.67;;;13.77;;
55202;SDS011;41077;52.956;6.796;2023-04-28T02:14:20;24.17;;;15.27;;
55202;SDS011;41077;52.956;6.796;2023-04-28T02:16:46;25.08;;;15.82;;
55202;SDS011;41077;52.956;6.796;2023-04-28T02:19:11;21.75;;;14.80;;
55202;SDS011;41077;52.956;6.796;2023-04-28T02:21:37;19.65;;;14.70;;
55202;SDS011;41077;52.956;6.796;2023-04-28T02:24:03;20.83;;;15.95;;
55202;SDS011;41077;52.956;6.796;2023-04-28T02:26:29;19.95;;;14.90;;
55202;SDS011;41077;52.956;6.796;2023-04-28T02:28:54;21.67;;;15.38;;
55202;SDS011;41077;52.956;6.796;2023-04-28T02:31:20;22.77;;;16.20;;
55202;SDS011;41077;52.956;6.796;2023-04-28T02:33:46;22.98;;;16.02;;
55202;SDS011;41077;52.956;6.796;2023-04-28T02:36:12;24.30;;;16.67;;
55202;SDS011;41077;52.956;6.796;2023-04-28T02:38:37;22.88;;;15.65;;
55202;SDS011;41077;52.956;6.796;2023-04-28T02:41:05;22.45;;;15.93;;
55202;SDS011;41077;52.956;6.796;2023-04-28T02:43:33;22.27;;;16.00;;
55202;SDS011;41077;52.956;6.796;2023-04-28T02:45:59;22.55;;;17.13;;
55202;SDS011;41077;52.956;6.796;2023-04-28T02:48:26;20.33;;;16.33;;
55202;SDS011;41077;52.956;6.796;2023-04-28T02:50:52;20.88;;;16.48;;
55202;SDS011;41077;52.956;6.796;2023-04-28T02:53:18;25.88;;;16.90;;
55202;SDS011;41077;52.956;6.796;2023-04-28T02:55:44;25.52;;;16.85;;
55202;SDS011;41077;52.956;6.796;2023-04-28T02:58:10;24.10;;;17.25;;
55202;SDS011;41077;52.956;6.796;2023-04-28T03:00:36;24.30;;;16.67;;
55202;SDS011;41077;52.956;6.796;2023-04-28T03:03:02;23.30;;;17.10;;
55202;SDS011;41077;52.956;6.796;2023-04-28T03:05:28;30.42;;;18.55;;
55202;SDS011;41077;52.956;6.796;2023-04-28T03:07:53;24.40;;;17.73;;
55202;SDS011;41077;52.956;6.796;2023-04-28T03:10:19;26.75;;;18.95;;
55202;SDS011;41077;52.956;6.796;2023-04-28T03:12:45;27.08;;;19.30;;
55202;SDS011;41077;52.956;6.796;2023-04-28T03:15:10;29.42;;;17.92;;
55202;SDS011;41077;52.956;6.796;2023-04-28T03:17:36;26.77;;;18.80;;
55202;SDS011;41077;52.956;6.796;2023-04-28T03:20:05;26.58;;;18.83;;
55202;SDS011;41077;52.956;6.796;2023-04-28T03:22:32;26.52;;;18.83;;
55202;SDS011;41077;52.956;6.796;2023-04-28T03:24:58;29.70;;;20.42;;
55202;SDS011;41077;52.956;6.796;2023-04-28T03:27:24;26.55;;;19.67;;
55202;SDS011;41077;52.956;6.796;2023-04-28T03:29:50;30.33;;;19.63;;
55202;SDS011;41077;52.956;6.796;2023-04-28T03:32:16;34.50;;;20.05;;
55202;SDS011;41077;52.956;6.796;2023-04-28T03:34:41;30.20;;;19.40;;
55202;SDS011;41077;52.956;6.796;2023-04-28T03:37:08;32.78;;;19.33;;
55202;SDS011;41077;52.956;6.796;2023-04-28T03:39:33;28.30;;;19.40;;
55202;SDS011;41077;52.956;6.796;2023-04-28T03:41:59;29.35;;;20.02;;
55202;SDS011;41077;52.956;6.796;2023-04-28T03:44:25;27.88;;;19.48;;
55202;SDS011;41077;52.956;6.796;2023-04-28T03:46:51;30.38;;;19.98;;
55202;SDS011;41077;52.956;6.796;2023-04-28T03:49:16;31.92;;;20.05;;
55202;SDS011;41077;52.956;6.796;2023-04-28T03:51:42;30.13;;;21.23;;
55202;SDS011;41077;52.956;6.796;2023-04-28T03:54:08;34.17;;;20.02;;
55202;SDS011;41077;52.956;6.796;2023-04-28T03:56:33;27.00;;;19.90;;
55202;SDS011;41077;52.956;6.796;2023-04-28T03:58:59;30.98;;;19.92;;
55202;SDS011;41077;52.956;6.796;2023-04-28T04:01:25;28.42;;;20.10;;
55202;SDS011;41077;52.956;6.796;2023-04-28T04:03:50;28.60;;;19.33;;
55202;SDS011;41077;52.956;6.796;2023-04-28T04:06:16;28.83;;;19.95;;
55202;SDS011;41077;52.956;6.796;2023-04-28T04:08:42;27.98;;;20.83;;
55202;SDS011;41077;52.956;6.796;2023-04-28T04:11:08;32.75;;;20.88;;
55202;SDS011;41077;52.956;6.796;2023-04-28T04:13:33;30.55;;;20.75;;
55202;SDS011;41077;52.956;6.796;2023-04-28T04:15:59;34.38;;;20.55;;
55202;SDS011;41077;52.956;6.796;2023-04-28T04:18:25;30.58;;;19.42;;
55202;SDS011;41077;52.956;6.796;2023-04-28T04:20:51;33.40;;;19.73;;
55202;SDS011;41077;52.956;6.796;2023-04-28T04:23:21;29.63;;;19.55;;
55202;SDS011;41077;52.956;6.796;2023-04-28T04:25:47;29.35;;;20.45;;
55202;SDS011;41077;52.956;6.796;2023-04-28T04:28:13;26.42;;;19.70;;
55202;SDS011;41077;52.956;6.796;2023-04-28T04:30:39;31.08;;;19.92;;
55202;SDS011;41077;52.956;6.796;2023-04-28T04:33:05;29.95;;;19.88;;
55202;SDS011;41077;52.956;6.796;2023-04-28T04:35:31;26.42;;;19.10;;
55202;SDS011;41077;52.956;6.796;2023-04-28T04:37:57;28.17;;;20.13;;
55202;SDS011;41077;52.956;6.796;2023-04-28T04:40:22;29.42;;;19.10;;
55202;SDS011;41077;52.956;6.796;2023-04-28T04:42:48;26.38;;;19.85;;
55202;SDS011;41077;52.956;6.796;2023-04-28T04:45:14;30.70;;;20.85;;
55202;SDS011;41077;52.956;6.796;2023-04-28T04:47:40;24.67;;;19.25;;
55202;SDS011;41077;52.956;6.796;2023-04-28T04:50:06;28.38;;;20.02;;
55202;SDS011;41077;52.956;6.796;2023-04-28T04:52:32;31.17;;;19.58;;
55202;SDS011;41077;52.956;6.796;2023-04-28T04:54:58;34.90;;;18.65;;
55202;SDS011;41077;52.956;6.796;2023-04-28T04:57:24;26.90;;;19.25;;
55202;SDS011;41077;52.956;6.796;2023-04-28T04:59:50;28.85;;;19.50;;
55202;SDS011;41077;52.956;6.796;2023-04-28T05:02:15;25.05;;;18.60;;
55202;SDS011;41077;52.956;6.796;2023-04-28T05:04:41;28.23;;;19.58;;
55202;SDS011;41077;52.956;6.796;2023-04-28T05:07:07;28.92;;;19.52;;
55202;SDS011;41077;52.956;6.796;2023-04-28T05:09:32;24.73;;;19.00;;
55202;SDS011;41077;52.956;6.796;2023-04-28T05:11:58;31.88;;;20.23;;
55202;SDS011;41077;52.956;6.796;2023-04-28T05:14:24;29.73;;;19.25;;
55202;SDS011;41077;52.956;6.796;2023-04-28T05:16:49;26.52;;;18.83;;
55202;SDS011;41077;52.956;6.796;2023-04-28T05:19:15;29.45;;;20.10;;
55202;SDS011;41077;52.956;6.796;2023-04-28T05:21:41;27.65;;;19.25;;
55202;SDS011;41077;52.956;6.796;2023-04-28T05:24:07;29.80;;;18.92;;
55202;SDS011;41077;52.956;6.796;2023-04-28T05:26:32;31.63;;;20.20;;
55202;SDS011;41077;52.956;6.796;2023-04-28T05:28:59;28.98;;;18.02;;
55202;SDS011;41077;52.956;6.796;2023-04-28T05:31:25;23.40;;;18.63;;
55202;SDS011;41077;52.956;6.796;2023-04-28T05:33:50;29.27;;;18.90;;
55202;SDS011;41077;52.956;6.796;2023-04-28T05:36:16;28.42;;;19.38;;
55202;SDS011;41077;52.956;6.796;2023-04-28T05:38:42;29.30;;;18.58;;
55202;SDS011;41077;52.956;6.796;2023-04-28T05:41:08;29.08;;;19.45;;
55202;SDS011;41077;52.956;6.796;2023-04-28T05:43:34;27.65;;;18.40;;
55202;SDS011;41077;52.956;6.796;2023-04-28T05:46:00;27.30;;;19.38;;
55202;SDS011;41077;52.956;6.796;2023-04-28T05:48:25;26.27;;;19.20;;
55202;SDS011;41077;52.956;6.796;2023-04-28T05:50:51;23.48;;;18.13;;
55202;SDS011;41077;52.956;6.796;2023-04-28T05:53:17;26.73;;;18.02;;
55202;SDS011;41077;52.956;6.796;2023-04-28T05:55:44;23.00;;;17.48;;
55202;SDS011;41077;52.956;6.796;2023-04-28T05:58:09;25.90;;;18.05;;
55202;SDS011;41077;52.956;6.796;2023-04-28T06:00:38;25.83;;;19.85;;
55202;SDS011;41077;52.956;6.796;2023-04-28T06:03:07;25.15;;;18.30;;
55202;SDS011;41077;52.956;6.796;2023-04-28T06:05:35;28.02;;;18.55;;
55202;SDS011;41077;52.956;6.796;2023-04-28T06:08:01;28.77;;;19.85;;
55202;SDS011;41077;52.956;6.796;2023-04-28T06:10:27;26.25;;;17.65;;
55202;SDS011;41077;52.956;6.796;2023-04-28T06:12:53;25.42;;;17.95;;
55202;SDS011;41077;52.956;6.796;2023-04-28T06:15:19;29.67;;;18.02;;
55202;SDS011;41077;52.956;6.796;2023-04-28T06:17:45;26.58;;;17.00;;
55202;SDS011;41077;52.956;6.796;2023-04-28T06:20:12;22.73;;;17.77;;
55202;SDS011;41077;52.956;6.796;2023-04-28T06:22:38;22.75;;;17.17;;
55202;SDS011;41077;52.956;6.796;2023-04-28T06:25:05;25.55;;;17.75;;
55202;SDS011;41077;52.956;6.796;2023-04-28T06:27:31;21.92;;;17.35;;
55202;SDS011;41077;52.956;6.796;2023-04-28T06:29:57;28.33;;;18.25;;
55202;SDS011;41077;52.956;6.796;2023-04-28T06:32:23;24.23;;;18.23;;
55202;SDS011;41077;52.956;6.796;2023-04-28T06:34:48;29.95;;;16.52;;
55202;SDS011;41077;52.956;6.796;2023-04-28T06:37:14;24.65;;;16.77;;
55202;SDS011;41077;52.956;6.796;2023-04-28T06:39:40;22.92;;;17.25;;
55202;SDS011;41077;52.956;6.796;2023-04-28T06:42:06;20.45;;;16.70;;
55202;SDS011;41077;52.956;6.796;2023-04-28T06:44:32;24.75;;;17.85;;
55202;SDS011;41077;52.956;6.796;2023-04-28T06:46:58;24.83;;;16.10;;
55202;SDS011;41077;52.956;6.796;2023-04-28T06:49:24;22.50;;;15.80;;
55202;SDS011;41077;52.956;6.796;2023-04-28T06:51:50;23.10;;;16.67;;
55202;SDS011;41077;52.956;6.796;2023-04-28T06:54:16;21.30;;;15.85;;
55202;SDS011;41077;52.956;6.796;2023-04-28T06:56:42;27.08;;;16.65;;
55202;SDS011;41077;52.956;6.796;2023-04-28T06:59:08;19.30;;;15.35;;
55202;SDS011;41077;52.956;6.796;2023-04-28T07:01:33;23.48;;;14.75;;
55202;SDS011;41077;52.956;6.796;2023-04-28T07:03:59;22.38;;;15.55;;
55202;SDS011;41077;52.956;6.796;2023-04-28T07:06:25;26.77;;;17.25;;
55202;SDS011;41077;52.956;6.796;2023-04-28T07:08:51;22.48;;;15.57;;
55202;SDS011;41077;52.956;6.796;2023-04-28T07:11:17;24.90;;;16.35;;
55202;SDS011;41077;52.956;6.796;2023-04-28T07:13:43;21.83;;;15.93;;
55202;SDS011;41077;52.956;6.796;2023-04-28T07:16:13;22.42;;;15.35;;
55202;SDS011;41077;52.956;6.796;2023-04-28T07:18:39;22.15;;;16.05;;
55202;SDS011;41077;52.956;6.796;2023-04-28T07:21:05;20.35;;;14.98;;
55202;SDS011;41077;52.956;6.796;2023-04-28T07:23:30;19.52;;;15.68;;
55202;SDS011;41077;52.956;6.796;2023-04-28T07:25:56;21.33;;;15.77;;
55202;SDS011;41077;52.956;6.796;2023-04-28T07:28:22;26.13;;;15.93;;
55202;SDS011;41077;52.956;6.796;2023-04-28T07:30:48;22.67;;;15.07;;
55202;SDS011;41077;52.956;6.796;2023-04-28T07:33:14;19.73;;;14.95;;
55202;SDS011;41077;52.956;6.796;2023-04-28T07:35:40;20.83;;;14.43;;
55202;SDS011;41077;52.956;6.796;2023-04-28T07:38:06;19.35;;;14.48;;
55202;SDS011;41077;52.956;6.796;2023-04-28T07:40:31;22.70;;;14.70;;
55202;SDS011;41077;52.956;6.796;2023-04-28T07:42:57;21.27;;;13.88;;
55202;SDS011;41077;52.956;6.796;2023-04-28T07:45:23;22.38;;;15.43;;
55202;SDS011;41077;52.956;6.796;2023-04-28T07:47:48;22.50;;;14.93;;
55202;SDS011;41077;52.956;6.796;2023-04-28T07:50:14;19.67;;;13.80;;
55202;SDS011;41077;52.956;6.796;2023-04-28T07:52:41;16.15;;;13.07;;
55202;SDS011;41077;52.956;6.796;2023-04-28T07:55:07;20.80;;;14.82;;
55202;SDS011;41077;52.956;6.796;2023-04-28T07:57:33;19.40;;;13.65;;
55202;SDS011;41077;52.956;6.796;2023-04-28T07:59:59;23.13;;;14.00;;
55202;SDS011;41077;52.956;6.796;2023-04-28T08:02:25;16.15;;;12.27;;
55202;SDS011;41077;52.956;6.796;2023-04-28T08:04:51;21.50;;;13.85;;
55202;SDS011;41077;52.956;6.796;2023-04-28T08:07:17;16.80;;;13.02;;
55202;SDS011;41077;52.956;6.796;2023-04-28T08:09:42;22.17;;;13.45;;
55202;SDS011;41077;52.956;6.796;2023-04-28T08:12:11;19.13;;;12.63;;
55202;SDS011;41077;52.956;6.796;2023-04-28T08:14:37;19.45;;;13.32;;
55202;SDS011;41077;52.956;6.796;2023-04-28T08:17:03;18.05;;;12.57;;
55202;SDS011;41077;52.956;6.796;2023-04-28T08:19:28;16.55;;;12.18;;
55202;SDS011;41077;52.956;6.796;2023-04-28T08:21:54;19.85;;;11.32;;
55202;SDS011;41077;52.956;6.796;2023-04-28T08:24:20;18.08;;;11.88;;
55202;SDS011;41077;52.956;6.796;2023-04-28T08:26:46;16.25;;;12.02;;
55202;SDS011;41077;52.956;6.796;2023-04-28T08:29:11;19.02;;;12.27;;
55202;SDS011;41077;52.956;6.796;2023-04-28T08:31:37;17.90;;;11.38;;
55202;SDS011;41077;52.956;6.796;2023-04-28T08:34:03;22.73;;;11.65;;
55202;SDS011;41077;52.956;6.796;2023-04-28T08:36:28;15.40;;;11.70;;
55202;SDS011;41077;52.956;6.796;2023-04-28T08:38:56;15.35;;;10.75;;
55202;SDS011;41077;52.956;6.796;2023-04-28T08:41:28;16.77;;;11.20;;
55202;SDS011;41077;52.956;6.796;2023-04-28T08:43:57;19.70;;;11.40;;
55202;SDS011;41077;52.956;6.796;2023-04-28T08:46:23;17.02;;;10.93;;
55202;SDS011;41077;52.956;6.796;2023-04-28T08:48:51;17.55;;;11.77;;
55202;SDS011;41077;52.956;6.796;2023-04-28T08:51:30;18.33;;;12.00;;
55202;SDS011;41077;52.956;6.796;2023-04-28T08:53:58;13.07;;;10.45;;
55202;SDS011;41077;52.956;6.796;2023-04-28T08:56:30;15.63;;;11.80;;
55202;SDS011;41077;52.956;6.796;2023-04-28T08:59:00;19.33;;;12.50;;
55202;SDS011;41077;52.956;6.796;2023-04-28T09:01:28;18.33;;;13.45;;
55202;SDS011;41077;52.956;6.796;2023-04-28T09:03:55;18.15;;;13.10;;
55202;SDS011;41077;52.956;6.796;2023-04-28T09:06:21;15.20;;;11.98;;
55202;SDS011;41077;52.956;6.796;2023-04-28T09:08:47;15.20;;;12.02;;
55202;SDS011;41077;52.956;6.796;2023-04-28T09:11:13;18.23;;;12.52;;
55202;SDS011;41077;52.956;6.796;2023-04-28T09:13:40;23.77;;;12.98;;
55202;SDS011;41077;52.956;6.796;2023-04-28T09:16:06;20.42;;;12.85;;
55202;SDS011;41077;52.956;6.796;2023-04-28T09:18:32;16.45;;;12.75;;
55202;SDS011;41077;52.956;6.796;2023-04-28T09:21:04;16.65;;;12.70;;
55202;SDS011;41077;52.956;6.796;2023-04-28T09:23:31;19.73;;;11.63;;
55202;SDS011;41077;52.956;6.796;2023-04-28T09:26:04;21.88;;;12.57;;
55202;SDS011;41077;52.956;6.796;2023-04-28T09:28:32;16.13;;;11.13;;
55202;SDS011;41077;52.956;6.796;2023-04-28T09:30:59;15.10;;;11.57;;
55202;SDS011;41077;52.956;6.796;2023-04-28T09:33:26;16.80;;;11.85;;
55202;SDS011;41077;52.956;6.796;2023-04-28T09:35:52;20.48;;;13.32;;
55202;SDS011;41077;52.956;6.796;2023-04-28T09:38:19;16.48;;;11.25;;
55202;SDS011;41077;52.956;6.796;2023-04-28T09:40:58;16.50;;;11.73;;
55202;SDS011;41077;52.956;6.796;2023-04-28T09:45:51;16.35;;;10.95;;
55202;SDS011;41077;52.956;6.796;2023-04-28T09:48:25;14.77;;;11.40;;
55202;SDS011;41077;52.956;6.796;2023-04-28T09:50:52;15.40;;;11.45;;
55202;SDS011;41077;52.956;6.796;2023-04-28T09:53:20;16.52;;;11.43;;
55202;SDS011;41077;52.956;6.796;2023-04-28T09:55:47;15.43;;;11.43;;
55202;SDS011;41077;52.956;6.796;2023-04-28T09:58:16;16.15;;;11.05;;
55202;SDS011;41077;52.956;6.796;2023-04-28T10:00:45;14.07;;;10.73;;
55202;SDS011;41077;52.956;6.796;2023-04-28T10:03:14;18.90;;;11.40;;
55202;SDS011;41077;52.956;6.796;2023-04-28T10:05:41;21.75;;;10.90;;
55202;SDS011;41077;52.956;6.796;2023-04-28T10:08:06;16.70;;;11.70;;
55202;SDS011;41077;52.956;6.796;2023-04-28T10:10:32;14.93;;;11.52;;
55202;SDS011;41077;52.956;6.796;2023-04-28T10:12:58;13.05;;;10.65;;
55202;SDS011;41077;52.956;6.796;2023-04-28T10:15:25;17.35;;;10.95;;
55202;SDS011;41077;52.956;6.796;2023-04-28T10:17:51;14.50;;;10.75;;
55202;SDS011;41077;52.956;6.796;2023-04-28T10:20:18;18.08;;;11.40;;
55202;SDS011;41077;52.956;6.796;2023-04-28T10:25:40;19.27;;;10.95;;
55202;SDS011;41077;52.956;6.796;2023-04-28T10:28:07;14.02;;;11.18;;
55202;SDS011;41077;52.956;6.796;2023-04-28T10:30:34;12.88;;;9.75;;
55202;SDS011;41077;52.956;6.796;2023-04-28T10:40:35;12.65;;;10.32;;
55202;SDS011;41077;52.956;6.796;2023-04-28T10:43:05;13.25;;;10.40;;
55202;SDS011;41077;52.956;6.796;2023-04-28T10:48:13;20.23;;;12.00;;
55202;SDS011;41077;52.956;6.796;2023-04-28T10:56:13;12.43;;;9.18;;
55202;SDS011;41077;52.956;6.796;2023-04-28T10:58:42;14.27;;;10.35;;
55202;SDS011;41077;52.956;6.796;2023-04-28T11:06:34;14.05;;;10.35;;
55202;SDS011;41077;52.956;6.796;2023-04-28T11:17:32;14.77;;;10.38;;
55202;SDS011;41077;52.956;6.796;2023-04-28T11:22:06;13.10;;;10.25;;
55202;SDS011;41077;52.956;6.796;2023-04-28T11:24:41;15.45;;;11.00;;
55202;SDS011;41077;52.956;6.796;2023-04-28T11:27:23;16.45;;;10.43;;
55202;SDS011;41077;52.956;6.796;2023-04-28T11:29:52;18.05;;;11.02;;
55202;SDS011;41077;52.956;6.796;2023-04-28T11:32:24;17.23;;;11.23;;
55202;SDS011;41077;52.956;6.796;2023-04-28T11:34:54;16.63;;;11.73;;
55202;SDS011;41077;52.956;6.796;2023-04-28T11:37:20;14.75;;;11.00;;
55202;SDS011;41077;52.956;6.796;2023-04-28T11:39:47;19.00;;;10.98;;
55202;SDS011;41077;52.956;6.796;2023-04-28T11:42:13;11.23;;;9.63;;
55202;SDS011;41077;52.956;6.796;2023-04-28T11:44:39;15.50;;;11.13;;
55202;SDS011;41077;52.956;6.796;2023-04-28T11:47:05;14.40;;;10.57;;
55202;SDS011;41077;52.956;6.796;2023-04-28T11:49:40;13.93;;;10.48;;
55202;SDS011;41077;52.956;6.796;2023-04-28T11:52:07;13.18;;;10.95;;
55202;SDS011;41077;52.956;6.796;2023-04-28T11:54:34;13.73;;;10.35;;
55202;SDS011;41077;52.956;6.796;2023-04-28T11:57:01;15.55;;;11.68;;
55202;SDS011;41077;52.956;6.796;2023-04-28T11:59:29;18.83;;;11.85;;
55202;SDS011;41077;52.956;6.796;2023-04-28T12:02:00;18.30;;;12.15;;
55202;SDS011;41077;52.956;6.796;2023-04-28T12:07:08;16.85;;;11.52;;
55202;SDS011;41077;52.956;6.796;2023-04-28T12:09:36;12.25;;;10.68;;
55202;SDS011;41077;52.956;6.796;2023-04-28T12:12:03;18.55;;;11.00;;
55202;SDS011;41077;52.956;6.796;2023-04-28T12:14:30;15.00;;;12.35;;
55202;SDS011;41077;52.956;6.796;2023-04-28T12:17:00;19.63;;;11.13;;
55202;SDS011;41077;52.956;6.796;2023-04-28T12:19:26;15.40;;;11.20;;
55202;SDS011;41077;52.956;6.796;2023-04-28T12:22:02;18.35;;;12.05;;
55202;SDS011;41077;52.956;6.796;2023-04-28T12:24:29;18.35;;;11.98;;
55202;SDS011;41077;52.956;6.796;2023-04-28T12:27:12;20.88;;;12.98;;
55202;SDS011;41077;52.956;6.796;2023-04-28T12:29:40;19.73;;;11.43;;
55202;SDS011;41077;52.956;6.796;2023-04-28T12:32:10;15.48;;;11.43;;
55202;SDS011;41077;52.956;6.796;2023-04-28T12:34:37;16.77;;;11.50;;
55202;SDS011;41077;52.956;6.796;2023-04-28T12:37:04;21.23;;;11.68;;
55202;SDS011;41077;52.956;6.796;2023-04-28T12:39:33;17.17;;;12.15;;
55202;SDS011;41077;52.956;6.796;2023-04-28T12:42:00;19.38;;;11.70;;
55202;SDS011;41077;52.956;6.796;2023-04-28T12:44:27;15.18;;;12.10;;
55202;SDS011;41077;52.956;6.796;2023-04-28T12:47:03;20.60;;;14.52;;
55202;SDS011;41077;52.956;6.796;2023-04-28T12:49:33;19.70;;;14.10;;
55202;SDS011;41077;52.956;6.796;2023-04-28T12:52:00;17.20;;;13.63;;
55202;SDS011;41077;52.956;6.796;2023-04-28T12:54:26;19.27;;;13.50;;
55202;SDS011;41077;52.956;6.796;2023-04-28T12:56:52;16.10;;;14.23;;
55202;SDS011;41077;52.956;6.796;2023-04-28T12:59:20;17.13;;;14.60;;
55202;SDS011;41077;52.956;6.796;2023-04-28T13:01:47;16.70;;;14.80;;
55202;SDS011;41077;52.956;6.796;2023-04-28T13:04:13;19.45;;;14.98;;
55202;SDS011;41077;52.956;6.796;2023-04-28T13:06:39;16.30;;;13.88;;
55202;SDS011;41077;52.956;6.796;2023-04-28T13:09:08;18.60;;;15.07;;
55202;SDS011;41077;52.956;6.796;2023-04-28T13:11:35;15.65;;;14.05;;
55202;SDS011;41077;52.956;6.796;2023-04-28T13:14:00;17.92;;;14.27;;
55202;SDS011;41077;52.956;6.796;2023-04-28T13:16:28;18.60;;;15.02;;
55202;SDS011;41077;52.956;6.796;2023-04-28T13:18:54;18.60;;;16.60;;
55202;SDS011;41077;52.956;6.796;2023-04-28T13:21:22;19.05;;;16.77;;
55202;SDS011;41077;52.956;6.796;2023-04-28T13:23:49;21.83;;;17.42;;
55202;SDS011;41077;52.956;6.796;2023-04-28T13:26:15;19.75;;;15.77;;
55202;SDS011;41077;52.956;6.796;2023-04-28T13:28:40;19.27;;;16.60;;
55202;SDS011;41077;52.956;6.796;2023-04-28T13:31:06;17.35;;;15.65;;
55202;SDS011;41077;52.956;6.796;2023-04-28T13:33:32;18.77;;;16.05;;
55202;SDS011;41077;52.956;6.796;2023-04-28T13:35:58;23.52;;;17.50;;
55202;SDS011;41077;52.956;6.796;2023-04-28T13:38:24;19.95;;;17.80;;
55202;SDS011;41077;52.956;6.796;2023-04-28T13:40:51;20.65;;;18.40;;
55202;SDS011;41077;52.956;6.796;2023-04-28T13:43:17;21.10;;;17.90;;
55202;SDS011;41077;52.956;6.796;2023-04-28T13:45:43;21.67;;;19.42;;
55202;SDS011;41077;52.956;6.796;2023-04-28T13:48:09;23.75;;;20.48;;
55202;SDS011;41077;52.956;6.796;2023-04-28T13:50:36;26.00;;;22.08;;
55202;SDS011;41077;52.956;6.796;2023-04-28T13:53:01;24.60;;;21.33;;
55202;SDS011;41077;52.956;6.796;2023-04-28T13:55:28;31.95;;;24.67;;
55202;SDS011;41077;52.956;6.796;2023-04-28T13:57:54;39.25;;;25.90;;
55202;SDS011;41077;52.956;6.796;2023-04-28T14:00:20;33.75;;;28.08;;
55202;SDS011;41077;52.956;6.796;2023-04-28T14:02:46;31.88;;;25.95;;
55202;SDS011;41077;52.956;6.796;2023-04-28T14:05:13;38.75;;;29.58;;
55202;SDS011;41077;52.956;6.796;2023-04-28T14:07:41;40.97;;;31.27;;
55202;SDS011;41077;52.956;6.796;2023-04-28T14:10:07;35.08;;;28.38;;
55202;SDS011;41077;52.956;6.796;2023-04-28T14:12:33;40.40;;;30.67;;
55202;SDS011;41077;52.956;6.796;2023-04-28T14:14:59;43.22;;;33.83;;
55202;SDS011;41077;52.956;6.796;2023-04-28T14:17:25;41.55;;;31.67;;
55202;SDS011;41077;52.956;6.796;2023-04-28T14:19:52;42.17;;;33.15;;
55202;SDS011;41077;52.956;6.796;2023-04-28T14:22:18;44.88;;;35.33;;
55202;SDS011;41077;52.956;6.796;2023-04-28T14:24:43;38.67;;;31.80;;
55202;SDS011;41077;52.956;6.796;2023-04-28T14:27:09;39.13;;;33.05;;
55202;SDS011;41077;52.956;6.796;2023-04-28T14:29:35;49.35;;;36.00;;
55202;SDS011;41077;52.956;6.796;2023-04-28T14:32:01;52.85;;;37.65;;
55202;SDS011;41077;52.956;6.796;2023-04-28T14:34:29;72.32;;;55.60;;
55202;SDS011;41077;52.956;6.796;2023-04-28T14:37:04;63.60;;;53.17;;
55202;SDS011;41077;52.956;6.796;2023-04-28T14:39:30;56.83;;;42.67;;
55202;SDS011;41077;52.956;6.796;2023-04-28T14:41:56;50.80;;;38.65;;
55202;SDS011;41077;52.956;6.796;2023-04-28T14:44:21;53.42;;;41.67;;
55202;SDS011;41077;52.956;6.796;2023-04-28T14:46:47;63.35;;;45.08;;
55202;SDS011;41077;52.956;6.796;2023-04-28T14:49:13;65.53;;;49.83;;
55202;SDS011;41077;52.956;6.796;2023-04-28T14:51:39;56.65;;;43.47;;
55202;SDS011;41077;52.956;6.796;2023-04-28T14:54:05;59.15;;;44.42;;
55202;SDS011;41077;52.956;6.796;2023-04-28T14:56:30;59.92;;;45.63;;
55202;SDS011;41077;52.956;6.796;2023-04-28T14:58:56;72.00;;;51.45;;
55202;SDS011;41077;52.956;6.796;2023-04-28T15:01:21;51.85;;;41.63;;
55202;SDS011;41077;52.956;6.796;2023-04-28T15:03:47;62.65;;;46.63;;
55202;SDS011;41077;52.956;6.796;2023-04-28T15:06:13;68.57;;;49.72;;
55202;SDS011;41077;52.956;6.796;2023-04-28T15:08:39;84.60;;;58.17;;
55202;SDS011;41077;52.956;6.796;2023-04-28T15:11:05;69.15;;;51.20;;
55202;SDS011;41077;52.956;6.796;2023-04-28T15:13:30;66.40;;;47.78;;